createdAt,value
2023-05-10T03:12:56.905Z,100308.37
2023-05-10T03:16:10.962Z,100308.37
2023-05-10T03:19:39.443Z,100309.56
2023-05-10T03:22:47.918Z,100318.87
2023-05-10T03:25:51.727Z,100319.63
2023-05-10T03:28:55.076Z,100311.25
2023-05-10T03:32:00.321Z,100315.28
2023-05-10T03:35:10.302Z,100300.81
2023-05-10T03:38:15.682Z,100308.78
2023-05-10T03:41:18.175Z,100312.72
2023-05-10T03:44:20.422Z,100309.69
2023-05-10T03:47:22.874Z,100305.47
2023-05-10T03:50:25.593Z,100321.06
2023-05-10T03:53:28.049Z,100314.47
2023-05-10T03:56:31.062Z,100314.47
2023-05-10T03:59:33.863Z,100313.00
2023-05-10T04:02:36.182Z,100313.44
2023-05-10T04:05:38.784Z,100314.03
2023-05-10T04:08:40.976Z,100317.72
2023-05-10T04:11:43.621Z,100308.37
2023-05-10T04:14:45.783Z,100313.97
2023-05-10T04:17:48.273Z,100300.78
2023-05-10T04:20:50.463Z,100311.06
2023-05-10T04:23:52.920Z,100310.25
2023-05-10T04:26:57.630Z,100314.81
2023-05-10T04:30:00.420Z,100316.28
2023-05-10T04:33:05.060Z,100319.19
2023-05-10T04:36:07.792Z,100315.78
2023-05-10T04:39:10.775Z,100322.50
2023-05-10T04:42:13.444Z,100321.16
2023-05-10T04:45:15.714Z,100325.25
2023-05-10T04:48:18.145Z,100319.91
2023-05-10T04:51:21.448Z,100322.19
2023-05-10T04:54:23.972Z,100319.91
2023-05-10T04:57:26.254Z,100316.28
2023-05-10T05:00:29.031Z,100321.25
2023-05-10T05:03:31.378Z,100315.56
2023-05-10T05:06:34.054Z,100313.56
2023-05-10T05:09:37.005Z,100307.97
2023-05-10T05:12:39.475Z,100312.75
2023-05-10T05:15:41.727Z,100311.78
2023-05-10T05:18:44.316Z,100314.00
2023-05-10T05:21:46.679Z,100318.44
2023-05-10T05:24:49.156Z,100319.56
2023-05-10T05:27:51.301Z,100314.09
2023-05-10T05:30:54.072Z,100323.41
2023-05-10T05:33:56.615Z,100328.22
2023-05-10T05:36:59.131Z,100330.56
2023-05-10T05:43:10.120Z,100333.50
2023-05-10T05:49:19.986Z,100341.13
2023-05-10T05:52:22.267Z,100346.88
2023-05-10T05:55:25.341Z,100340.75
2023-05-10T05:58:27.909Z,100335.78
2023-05-10T06:01:30.352Z,100342.28
2023-05-10T06:04:32.809Z,100344.63
2023-05-10T06:07:35.172Z,100344.44
2023-05-10T06:10:38.192Z,100333.03
2023-05-10T06:13:40.748Z,100342.72
2023-05-10T06:16:50.730Z,100337.34
2023-05-10T06:19:56.327Z,100342.25
2023-05-10T06:22:59.629Z,100345.56
2023-05-10T06:26:01.839Z,100350.22
2023-05-10T06:29:04.687Z,100349.09
2023-05-10T06:32:08.372Z,100348.13
2023-05-10T06:35:11.027Z,100348.50
2023-05-10T06:38:13.208Z,100350.38
2023-05-10T06:41:15.586Z,100354.94
2023-05-10T06:44:18.210Z,100356.78
2023-05-10T06:47:20.879Z,100350.06
2023-05-10T06:50:23.279Z,100346.13
2023-05-10T06:53:25.848Z,100346.00
2023-05-10T06:56:28.347Z,100355.06
2023-05-10T06:59:30.790Z,100341.19
2023-05-10T07:02:33.166Z,100338.44
2023-05-10T07:05:35.817Z,100341.19
2023-05-10T07:08:38.248Z,100343.16
2023-05-10T07:11:40.669Z,100330.66
2023-05-10T07:14:43.301Z,100338.94
2023-05-10T07:17:46.553Z,100334.91
2023-05-10T07:20:48.847Z,100343.41
2023-05-10T07:23:51.284Z,100335.72
2023-05-10T07:26:53.497Z,100329.88
2023-05-10T07:29:57.500Z,100337.12
2023-05-10T07:33:00.254Z,100331.00
2023-05-10T07:36:02.876Z,100328.53
2023-05-10T07:39:06.337Z,100325.81
2023-05-10T07:42:09.258Z,100320.94
2023-05-10T07:45:11.913Z,100325.22
2023-05-10T07:48:14.419Z,100313.28
2023-05-10T07:51:16.711Z,100323.16
2023-05-10T07:54:19.197Z,100331.06
2023-05-10T07:57:21.898Z,100318.72
2023-05-10T08:00:24.319Z,100318.87
2023-05-10T08:03:26.737Z,100323.88
2023-05-10T08:06:30.820Z,100329.13
2023-05-10T08:09:33.401Z,100325.09
2023-05-10T08:12:35.549Z,100322.03
2023-05-10T08:15:38.014Z,100332.09
2023-05-10T08:18:41.161Z,100331.09
2023-05-10T08:21:43.606Z,100322.50
2023-05-10T08:24:47.284Z,100330.06
2023-05-10T08:27:50.355Z,100319.41
2023-05-10T08:30:52.538Z,100320.50
2023-05-10T08:33:54.987Z,100310.88
2023-05-10T08:36:57.151Z,100327.50
2023-05-10T08:39:59.612Z,100325.00
2023-05-10T08:43:10.061Z,100316.44
2023-05-10T08:46:18.390Z,100314.50
2023-05-10T08:49:21.158Z,100318.03
2023-05-10T08:52:26.817Z,100323.16
2023-05-10T08:55:29.314Z,100327.28
2023-05-10T08:58:32.066Z,100306.53
2023-05-10T09:01:37.498Z,100323.56
2023-05-10T09:04:40.098Z,100320.31
2023-05-10T09:07:42.984Z,100312.78
2023-05-10T09:10:48.248Z,100318.19
2023-05-10T09:13:53.527Z,100320.50
2023-05-10T09:16:57.422Z,100314.47
2023-05-10T09:20:00.766Z,100308.47
2023-05-10T09:23:03.562Z,100303.06
2023-05-10T09:26:06.617Z,100303.12
2023-05-10T09:29:09.436Z,100300.56
2023-05-10T09:32:13.922Z,100314.97
2023-05-10T09:35:27.994Z,100306.41
2023-05-10T09:38:48.346Z,100298.75
2023-05-10T09:41:55.929Z,100295.19
2023-05-10T09:45:16.016Z,100297.66
2023-05-10T09:48:18.633Z,100303.16
2023-05-10T09:51:25.489Z,100293.84
2023-05-10T09:54:28.068Z,100288.09
2023-05-10T09:57:30.561Z,100301.19
2023-05-10T10:00:37.892Z,100296.59
2023-05-10T10:03:44.452Z,100298.72
2023-05-10T10:06:46.734Z,100291.34
2023-05-10T10:09:49.466Z,100279.19
2023-05-10T10:12:52.846Z,100272.72
2023-05-10T10:15:55.698Z,100274.81
2023-05-10T10:18:58.194Z,100273.91
2023-05-10T10:22:01.354Z,100264.88
2023-05-10T10:25:05.125Z,100254.88
2023-05-10T10:28:28.398Z,100253.44
2023-05-10T10:31:53.209Z,100247.47
2023-05-10T10:34:57.235Z,100257.53
2023-05-10T10:37:59.781Z,100249.72
2023-05-10T10:41:28.232Z,100245.66
2023-05-10T10:44:34.627Z,100235.41
2023-05-10T10:47:38.335Z,100231.91
2023-05-10T10:50:47.865Z,100231.19
2023-05-10T10:53:50.722Z,100236.47
2023-05-10T10:57:15.368Z,100221.41
2023-05-10T11:00:37.919Z,100227.66
2023-05-10T11:03:40.315Z,100234.16
2023-05-10T11:06:43.546Z,100230.34
2023-05-10T11:09:48.280Z,100219.50
2023-05-10T11:13:02.028Z,100210.81
2023-05-10T11:16:14.893Z,100218.28
2023-05-10T11:19:18.833Z,100220.88
2023-05-10T11:22:20.967Z,100216.25
2023-05-10T11:25:29.557Z,100213.69
2023-05-10T11:28:31.807Z,100205.44
2023-05-10T11:31:34.426Z,100209.75
2023-05-10T11:34:36.590Z,100199.09
2023-05-10T11:37:44.307Z,100200.09
2023-05-10T11:40:46.595Z,100194.00
2023-05-10T11:43:52.055Z,100194.06
2023-05-10T11:46:54.256Z,100192.25
2023-05-10T11:49:56.851Z,100196.53
2023-05-10T11:53:02.017Z,100196.31
2023-05-10T11:56:11.554Z,100192.84
2023-05-10T11:59:15.717Z,100195.75
2023-05-10T12:02:18.201Z,100191.03
2023-05-10T12:05:20.879Z,100190.28
2023-05-10T12:08:25.332Z,100192.94
2023-05-10T12:11:29.287Z,100188.63
2023-05-10T12:14:36.108Z,100199.81
2023-05-10T12:17:42.685Z,100198.09
2023-05-10T12:20:45.842Z,100203.47
2023-05-10T12:23:51.829Z,100194.94
2023-05-10T12:26:53.982Z,100186.75
2023-05-10T12:29:56.464Z,100192.81
2023-05-10T12:33:10.645Z,100196.53
2023-05-10T12:36:15.468Z,100191.12
2023-05-10T12:39:17.622Z,100189.63
2023-05-10T12:42:20.033Z,100181.75
2023-05-10T12:45:23.069Z,100179.56
2023-05-10T12:48:25.919Z,100176.31
2023-05-10T12:51:28.083Z,100167.75
2023-05-10T12:54:30.810Z,100170.28
2023-05-10T12:57:33.046Z,100172.06
2023-05-10T13:00:35.547Z,100171.09
2023-05-10T13:03:37.644Z,100160.28
2023-05-10T13:06:40.279Z,100158.03
2023-05-10T13:09:42.466Z,100160.88
2023-05-10T13:12:46.298Z,100156.19
2023-05-10T13:15:48.470Z,100149.78
2023-05-10T13:18:50.925Z,100143.16
2023-05-10T13:21:53.135Z,100139.50
2023-05-10T13:24:55.517Z,100132.34
2023-05-10T13:27:57.750Z,100126.38
2023-05-10T13:31:01.005Z,100133.34
2023-05-10T13:34:03.686Z,100126.56
2023-05-10T13:37:06.370Z,100123.94
2023-05-10T13:40:09.153Z,100116.22
2023-05-10T13:43:11.811Z,100105.88
2023-05-10T13:46:13.951Z,100116.56
2023-05-10T13:49:16.390Z,100107.47
2023-05-10T13:52:19.151Z,100110.12
2023-05-10T13:55:21.587Z,100119.19
2023-05-10T13:58:24.625Z,100113.62
2023-05-10T14:01:27.218Z,100102.06
2023-05-10T14:04:30.622Z,100093.50
2023-05-10T14:07:32.762Z,100097.13
2023-05-10T14:10:35.251Z,100093.03
2023-05-10T14:13:37.506Z,100087.13
2023-05-10T14:16:44.053Z,100084.34
2023-05-10T14:19:46.328Z,100092.38
2023-05-10T14:22:48.761Z,100078.28
2023-05-10T14:25:52.317Z,100079.84
2023-05-10T14:28:54.899Z,100085.16
2023-05-10T14:31:57.124Z,100068.72
2023-05-10T14:35:00.475Z,100071.91
2023-05-10T14:38:05.703Z,100066.34
2023-05-10T14:41:09.966Z,100076.53
2023-05-10T14:44:13.492Z,100071.88
2023-05-10T14:47:15.872Z,100065.16
2023-05-10T14:50:32.192Z,100068.16
2023-05-10T14:53:38.156Z,100068.50
2023-05-10T14:56:42.443Z,100062.34
2023-05-10T14:59:46.428Z,100063.47
2023-05-10T15:02:49.371Z,100067.87
2023-05-10T15:05:53.048Z,100065.91
2023-05-10T15:08:55.168Z,100065.72
2023-05-10T15:11:57.547Z,100071.59
2023-05-10T15:14:59.692Z,100068.59
2023-05-10T15:18:02.121Z,100068.16
2023-05-10T15:21:04.270Z,100068.63
2023-05-10T15:24:07.087Z,100076.44
